createdAt,value
2019-03-23T00:01:15.180Z,79.70
2019-03-23T00:03:43.348Z,79.67
2019-03-23T00:06:11.298Z,75.10
2019-03-23T00:08:39.672Z,82.65
2019-03-23T00:11:07.641Z,81.05
2019-03-23T00:13:35.664Z,79.15
2019-03-23T00:16:03.591Z,77.80
2019-03-23T00:18:31.650Z,79.40
2019-03-23T00:20:59.611Z,78.45
2019-03-23T00:23:27.572Z,77.95
2019-03-23T00:25:55.643Z,77.17
2019-03-23T00:28:23.654Z,76.87
2019-03-23T00:30:51.721Z,76.37
2019-03-23T00:33:19.792Z,77.85
2019-03-23T00:35:47.968Z,78.80
2019-03-23T00:38:15.925Z,74.82
2019-03-23T00:40:43.890Z,73.97
2019-03-23T00:43:11.869Z,78.25
2019-03-23T00:45:39.833Z,78.78
2019-03-23T00:48:07.824Z,77.05
2019-03-23T00:50:35.775Z,77.55
2019-03-23T00:53:03.757Z,76.77
2019-03-23T00:55:31.715Z,78.10
2019-03-23T00:57:59.709Z,78.72
2019-03-23T01:00:27.695Z,81.02
2019-03-23T01:02:55.689Z,81.12
2019-03-23T01:05:23.676Z,78.83
2019-03-23T01:07:51.629Z,79.32
2019-03-23T01:10:19.595Z,79.87
2019-03-23T01:12:47.672Z,79.37
2019-03-23T01:15:15.745Z,75.42
2019-03-23T01:17:43.704Z,78.40
2019-03-23T01:20:12.205Z,80.42
2019-03-23T01:22:40.168Z,75.42
2019-03-23T01:25:08.454Z,80.95
2019-03-23T01:27:36.436Z,78.62
2019-03-23T01:30:06.274Z,79.75
2019-03-23T01:32:34.236Z,81.00
2019-03-23T01:35:02.204Z,79.65
2019-03-23T01:37:30.276Z,79.80
2019-03-23T01:39:58.328Z,80.87
2019-03-23T01:42:26.296Z,77.97
2019-03-23T01:44:54.286Z,78.85
2019-03-23T01:47:22.261Z,76.22
2019-03-23T01:49:50.317Z,75.60
2019-03-23T01:52:18.478Z,72.40
2019-03-23T01:54:46.441Z,71.92
2019-03-23T01:57:14.413Z,71.82
2019-03-23T01:59:42.396Z,69.30
2019-03-23T02:02:10.453Z,70.45
2019-03-23T02:04:38.416Z,69.62
2019-03-23T02:07:13.737Z,66.20
2019-03-23T02:09:36.266Z,64.45
2019-03-23T02:12:04.232Z,64.35
2019-03-23T02:14:32.113Z,65.37
2019-03-23T02:17:00.077Z,65.08
2019-03-23T02:19:28.028Z,63.45
2019-03-23T02:21:56.025Z,63.55
2019-03-23T02:24:23.988Z,60.03
2019-03-23T02:26:51.971Z,60.25
2019-03-23T02:29:20.373Z,57.78
2019-03-23T02:31:48.392Z,57.38
2019-03-23T02:34:16.462Z,54.23
2019-03-23T02:36:44.446Z,56.40
2019-03-23T02:39:12.507Z,53.17
2019-03-23T02:41:40.466Z,55.67
2019-03-23T02:44:08.452Z,54.13
2019-03-23T02:46:36.416Z,53.85
2019-03-23T02:49:04.373Z,54.75
2019-03-23T02:51:32.391Z,71.40
2019-03-23T02:54:00.571Z,72.50
2019-03-23T02:56:28.526Z,72.17
2019-03-23T02:58:56.514Z,68.42
2019-03-23T03:01:24.505Z,80.67
2019-03-23T03:03:52.460Z,82.10
2019-03-23T03:06:20.551Z,75.75
2019-03-23T03:08:48.545Z,68.72
2019-03-23T03:11:16.506Z,65.03
2019-03-23T03:13:44.464Z,64.95
2019-03-23T03:16:12.457Z,59.25
2019-03-23T03:18:40.415Z,57.98
2019-03-23T03:21:08.376Z,58.20
2019-03-23T03:23:36.357Z,52.73
2019-03-23T03:26:04.333Z,48.70
2019-03-23T03:28:32.378Z,52.60
2019-03-23T03:31:00.358Z,49.93
2019-03-23T03:33:28.334Z,50.15
2019-03-23T03:35:56.543Z,50.08
2019-03-23T03:38:24.522Z,46.98
2019-03-23T03:40:52.629Z,47.05
2019-03-23T03:43:20.796Z,48.58
2019-03-23T03:45:48.936Z,49.33
2019-03-23T03:48:16.935Z,46.58
2019-03-23T03:50:44.898Z,48.28
2019-03-23T03:53:12.791Z,47.70
2019-03-23T03:55:40.745Z,49.05
2019-03-23T03:58:08.714Z,46.05
2019-03-23T04:00:36.800Z,48.13
2019-03-23T04:03:04.761Z,48.38
2019-03-23T04:05:32.825Z,47.73
2019-03-23T04:08:10.913Z,47.73
2019-03-23T04:10:30.705Z,48.42
2019-03-23T04:12:59.064Z,49.05
2019-03-23T04:15:27.029Z,47.38
2019-03-23T04:17:54.983Z,49.58
2019-03-23T04:20:22.964Z,49.35
2019-03-23T04:22:50.946Z,50.50
2019-03-23T04:25:18.906Z,50.92
2019-03-23T04:27:46.909Z,49.48
2019-03-23T04:30:14.972Z,51.42
2019-03-23T04:32:43.136Z,53.80
2019-03-23T04:35:11.246Z,54.20
2019-03-23T04:37:39.324Z,54.42
2019-03-23T04:40:08.177Z,55.12
2019-03-23T04:42:36.146Z,52.90
2019-03-23T04:45:05.441Z,56.20
2019-03-23T04:47:33.411Z,54.73
2019-03-23T04:50:01.661Z,59.35
2019-03-23T04:52:29.617Z,60.38
2019-03-23T04:54:57.585Z,62.75
2019-03-23T04:57:25.570Z,59.67
2019-03-23T04:59:53.740Z,60.33
2019-03-23T05:02:21.701Z,59.08
2019-03-23T05:04:49.761Z,60.08
2019-03-23T05:07:17.789Z,63.63
2019-03-23T05:09:45.752Z,60.75
2019-03-23T05:12:13.852Z,60.23
2019-03-23T05:14:41.825Z,62.27
2019-03-23T05:17:09.890Z,60.58
2019-03-23T05:19:37.988Z,60.23
2019-03-23T05:22:06.055Z,63.35
2019-03-23T05:24:34.012Z,62.43
2019-03-23T05:27:01.982Z,62.53
2019-03-23T05:29:29.934Z,60.50
2019-03-23T05:31:57.937Z,63.00
2019-03-23T05:34:25.894Z,62.75
2019-03-23T05:36:53.884Z,63.05
2019-03-23T05:39:21.859Z,62.05
2019-03-23T05:41:49.867Z,61.02
2019-03-23T05:44:18.974Z,64.10
2019-03-23T05:46:46.945Z,56.75
2019-03-23T05:49:14.914Z,60.03
2019-03-23T05:51:42.876Z,64.35
2019-03-23T05:54:10.920Z,61.20
2019-03-23T05:56:38.893Z,61.90
2019-03-23T05:59:06.968Z,64.07
2019-03-23T06:01:34.917Z,60.28
2019-03-23T06:04:04.008Z,58.58
2019-03-23T06:06:31.968Z,61.42
2019-03-23T06:09:00.059Z,59.10
2019-03-23T06:11:28.020Z,59.58
2019-03-23T06:13:56.006Z,58.68
2019-03-23T06:16:23.984Z,58.55
2019-03-23T06:18:51.954Z,56.80
2019-03-23T06:21:19.922Z,56.63
2019-03-23T06:23:47.922Z,58.95
2019-03-23T06:26:15.855Z,57.05
2019-03-23T06:28:43.920Z,56.42
2019-03-23T06:31:11.912Z,55.08
2019-03-23T06:33:39.895Z,59.45
2019-03-23T06:36:07.853Z,58.45
2019-03-23T06:38:35.837Z,58.48
2019-03-23T06:41:04.116Z,59.25
2019-03-23T06:43:32.075Z,59.65
2019-03-23T06:46:00.102Z,58.25
2019-03-23T06:48:28.076Z,57.62
2019-03-23T06:50:56.148Z,58.45
2019-03-23T06:53:24.228Z,56.65
2019-03-23T06:55:52.319Z,57.93
2019-03-23T06:58:20.351Z,54.40
2019-03-23T07:00:48.420Z,54.75
2019-03-23T07:03:16.614Z,55.10
2019-03-23T07:05:44.634Z,57.83
2019-03-23T07:08:12.668Z,51.90
2019-03-23T07:10:40.656Z,56.10
2019-03-23T07:13:08.624Z,55.10
2019-03-23T07:15:36.682Z,54.20
2019-03-23T07:18:04.896Z,53.20
2019-03-23T07:20:33.235Z,55.08
2019-03-23T07:23:01.221Z,53.42
2019-03-23T07:25:29.192Z,55.08
2019-03-23T07:27:57.151Z,56.58
2019-03-23T07:30:25.142Z,54.90
2019-03-23T07:32:53.109Z,53.35
2019-03-23T07:35:21.079Z,52.55
2019-03-23T07:37:49.262Z,55.17
2019-03-23T07:40:17.226Z,50.17
2019-03-23T07:42:45.239Z,51.63
2019-03-23T07:45:13.325Z,49.42
2019-03-23T07:47:41.333Z,51.05
2019-03-23T07:50:09.673Z,51.15
2019-03-23T07:52:37.644Z,49.90
2019-03-23T07:55:13.150Z,53.85
2019-03-23T07:57:41.133Z,46.85
2019-03-23T08:00:10.723Z,50.78
2019-03-23T08:02:42.841Z,50.45
2019-03-23T08:05:10.780Z,51.15
2019-03-23T08:07:38.744Z,49.05
2019-03-23T08:10:07.040Z,48.75
2019-03-23T08:12:35.050Z,48.90
2019-03-23T08:15:03.331Z,49.50
2019-03-23T08:17:31.313Z,48.92
2019-03-23T08:19:59.307Z,48.92
2019-03-23T08:22:27.277Z,47.58
2019-03-23T08:24:55.361Z,47.20
2019-03-23T08:27:23.326Z,49.20
2019-03-23T08:29:51.374Z,49.13
2019-03-23T08:32:19.626Z,49.45
2019-03-23T08:34:47.673Z,47.83
2019-03-23T08:37:15.634Z,47.85
2019-03-23T08:39:48.512Z,47.10
2019-03-23T08:42:13.439Z,48.85
2019-03-23T08:44:41.286Z,49.75
2019-03-23T08:47:09.356Z,48.00
2019-03-23T08:49:37.339Z,50.28
2019-03-23T08:52:05.420Z,48.95
2019-03-23T08:54:33.438Z,50.20
2019-03-23T08:57:01.394Z,49.95
2019-03-23T08:59:29.389Z,50.60
2019-03-23T09:01:57.451Z,50.90
2019-03-23T09:04:25.463Z,51.65
2019-03-23T09:06:53.470Z,49.15
2019-03-23T09:09:21.436Z,49.30
2019-03-23T09:11:49.493Z,49.98
2019-03-23T09:14:18.001Z,49.38
2019-03-23T09:16:45.970Z,47.83
2019-03-23T09:19:14.101Z,51.63
2019-03-23T09:21:42.170Z,50.73
2019-03-23T09:24:10.118Z,47.58
2019-03-23T09:26:38.835Z,49.58
2019-03-23T09:29:06.972Z,46.33
2019-03-23T09:31:35.114Z,47.95
2019-03-23T09:34:03.373Z,47.30
2019-03-23T09:36:31.841Z,47.20
2019-03-23T09:39:00.520Z,47.65
2019-03-23T09:41:28.529Z,48.38
2019-03-23T09:43:56.513Z,48.23
2019-03-23T09:46:24.495Z,47.23
2019-03-23T09:48:52.676Z,47.70
2019-03-23T09:51:20.642Z,47.50
2019-03-23T09:53:48.854Z,48.78
2019-03-23T09:56:16.850Z,48.63
2019-03-23T09:58:45.020Z,48.58
2019-03-23T10:01:13.204Z,47.73
2019-03-23T10:03:42.877Z,49.25
2019-03-23T10:06:10.979Z,51.98
2019-03-23T10:08:38.936Z,49.08
2019-03-23T10:11:06.907Z,47.53
2019-03-23T10:13:34.899Z,49.08
2019-03-23T10:16:04.361Z,50.23
2019-03-23T10:18:32.421Z,47.10
2019-03-23T10:21:00.595Z,47.65
2019-03-23T10:23:28.696Z,47.30
2019-03-23T10:25:57.041Z,47.50
2019-03-23T10:28:25.129Z,47.88
2019-03-23T10:30:53.287Z,48.35
2019-03-23T10:33:21.358Z,46.73
2019-03-23T10:35:49.476Z,45.70
2019-03-23T10:38:17.449Z,46.92
2019-03-23T10:40:45.429Z,48.42
2019-03-23T10:43:13.497Z,47.60
2019-03-23T10:45:44.335Z,47.43
2019-03-23T10:48:12.221Z,46.65
2019-03-23T10:50:40.573Z,45.90
2019-03-23T10:53:08.585Z,46.02
2019-03-23T10:55:36.565Z,46.35
2019-03-23T10:58:04.534Z,44.88
2019-03-23T11:00:32.420Z,45.30
2019-03-23T11:03:00.394Z,45.28
2019-03-23T11:05:28.369Z,44.73
2019-03-23T11:07:56.457Z,44.67
2019-03-23T11:10:27.433Z,43.70
2019-03-23T11:12:55.335Z,44.55
2019-03-23T11:15:23.287Z,46.20
2019-03-23T11:17:51.246Z,44.33
2019-03-23T11:20:19.312Z,44.83
2019-03-23T11:22:47.405Z,43.98
2019-03-23T11:25:15.399Z,42.00
2019-03-23T11:27:43.535Z,42.95
2019-03-23T11:30:12.016Z,42.53
2019-03-23T11:32:39.980Z,43.35
2019-03-23T11:35:08.435Z,43.00
2019-03-23T11:37:36.609Z,43.70
2019-03-23T11:40:05.273Z,43.45
2019-03-23T11:42:33.185Z,43.85
2019-03-23T11:45:01.794Z,44.70
2019-03-23T11:47:29.884Z,45.50
2019-03-23T11:49:57.878Z,43.52
2019-03-23T11:52:25.945Z,45.38
2019-03-23T11:54:54.259Z,43.85
2019-03-23T11:57:22.238Z,44.80
2019-03-23T11:59:50.200Z,44.80
2019-03-23T12:02:18.403Z,44.67
2019-03-23T12:04:46.366Z,44.90
2019-03-23T12:07:14.481Z,45.00
2019-03-23T12:09:42.489Z,45.52
2019-03-23T12:12:10.463Z,45.08
2019-03-23T12:14:38.439Z,44.48
2019-03-23T12:17:06.395Z,47.70
2019-03-23T12:19:34.376Z,45.63
2019-03-23T12:22:02.446Z,44.63
2019-03-23T12:24:30.547Z,45.00
2019-03-23T12:26:58.621Z,46.20
2019-03-23T12:29:26.580Z,45.67
2019-03-23T12:31:54.651Z,45.25
2019-03-23T12:34:22.603Z,45.38
2019-03-23T12:36:50.602Z,45.67
2019-03-23T12:39:18.728Z,43.60
2019-03-23T12:41:46.705Z,41.83
2019-03-23T12:44:14.724Z,44.50
2019-03-23T12:46:48.256Z,45.83
2019-03-23T12:49:12.523Z,44.18
2019-03-23T12:51:40.452Z,46.10
2019-03-23T12:54:08.459Z,45.48
2019-03-23T12:56:36.426Z,42.83
2019-03-23T12:59:04.393Z,44.98
2019-03-23T13:01:32.384Z,45.50
2019-03-23T13:04:00.369Z,45.75
2019-03-23T13:06:28.460Z,44.93
2019-03-23T13:08:56.541Z,44.67
2019-03-23T13:11:31.096Z,43.98
2019-03-23T13:13:54.317Z,45.45
2019-03-23T13:16:22.350Z,43.20
2019-03-23T13:18:50.456Z,43.70
2019-03-23T13:21:18.708Z,43.48
2019-03-23T13:23:46.836Z,45.38
2019-03-23T13:26:14.851Z,44.58
2019-03-23T13:28:42.876Z,44.63
2019-03-23T13:31:10.856Z,42.98
2019-03-23T13:33:38.825Z,43.73
2019-03-23T13:36:07.449Z,42.95
2019-03-23T13:38:35.437Z,44.40
2019-03-23T13:41:03.505Z,45.10
2019-03-23T13:43:31.538Z,43.95
2019-03-23T13:45:59.528Z,42.67
2019-03-23T13:48:27.538Z,41.83
2019-03-23T13:50:55.647Z,41.63
2019-03-23T13:53:23.673Z,44.38
2019-03-23T13:55:51.724Z,43.05
2019-03-23T13:58:19.841Z,42.73
2019-03-23T14:00:47.914Z,43.92
2019-03-23T14:03:15.903Z,43.35
2019-03-23T14:05:43.896Z,44.67
2019-03-23T14:08:11.927Z,43.68
2019-03-23T14:10:39.975Z,43.17
2019-03-23T14:13:08.151Z,42.40
2019-03-23T14:15:37.797Z,44.25
2019-03-23T14:18:05.813Z,42.60
2019-03-23T14:20:33.811Z,43.80
2019-03-23T14:23:03.063Z,43.20
2019-03-23T14:25:31.368Z,41.30
2019-03-23T14:27:59.392Z,39.92
2019-03-23T14:30:27.377Z,40.80
2019-03-23T14:32:55.536Z,42.98
2019-03-23T14:35:23.504Z,43.23
2019-03-23T14:37:51.400Z,41.48
2019-03-23T14:40:19.544Z,40.17
2019-03-23T14:42:47.560Z,43.10
2019-03-23T14:45:15.690Z,41.68
2019-03-23T14:47:43.868Z,41.28
2019-03-23T14:50:12.137Z,39.42
2019-03-23T14:52:40.208Z,41.55
2019-03-23T14:55:08.192Z,42.48
2019-03-23T14:57:36.184Z,41.23
2019-03-23T15:00:05.739Z,39.27
2019-03-23T15:02:34.068Z,40.15
2019-03-23T15:05:02.517Z,40.78
2019-03-23T15:07:30.585Z,40.00
2019-03-23T15:09:58.575Z,41.00
2019-03-23T15:12:26.575Z,42.03
2019-03-23T15:14:54.548Z,41.10
2019-03-23T15:17:22.638Z,39.27
2019-03-23T15:19:50.589Z,38.40
2019-03-23T15:22:18.720Z,36.63
2019-03-23T15:24:46.797Z,36.80
2019-03-23T15:27:14.868Z,35.55
2019-03-23T15:29:42.939Z,39.08
2019-03-23T15:32:10.887Z,37.55
2019-03-23T15:34:38.975Z,37.45
2019-03-23T15:37:07.064Z,39.55
2019-03-23T15:39:35.033Z,37.88
2019-03-23T15:42:03.155Z,39.45
2019-03-23T15:44:31.114Z,39.25
2019-03-23T15:46:59.245Z,37.35
2019-03-23T15:49:27.303Z,38.60
2019-03-23T15:51:55.424Z,39.00
2019-03-23T15:54:23.374Z,39.08
2019-03-23T15:56:51.482Z,40.35
2019-03-23T15:59:19.536Z,40.58
2019-03-23T16:01:47.474Z,40.45
2019-03-23T16:04:15.557Z,38.98
2019-03-23T16:06:43.552Z,38.83
2019-03-23T16:09:11.537Z,37.83
2019-03-23T16:11:39.488Z,37.13
2019-03-23T16:14:07.500Z,36.17
2019-03-23T16:16:35.549Z,39.53
2019-03-23T16:19:03.541Z,37.03
2019-03-23T16:21:31.517Z,36.33
2019-03-23T16:23:59.496Z,37.25
2019-03-23T16:26:27.602Z,37.30
2019-03-23T16:28:55.646Z,32.85
2019-03-23T16:31:23.725Z,33.25
2019-03-23T16:33:51.743Z,31.37
2019-03-23T16:36:19.729Z,32.13
2019-03-23T16:38:47.945Z,30.45
2019-03-23T16:41:16.039Z,30.57
2019-03-23T16:43:44.013Z,30.92
2019-03-23T16:46:11.968Z,30.90
2019-03-23T16:48:40.161Z,30.05
2019-03-23T16:51:08.221Z,29.85
2019-03-23T16:53:36.194Z,30.12
2019-03-23T16:56:04.292Z,32.23
2019-03-23T16:58:32.255Z,32.58
2019-03-23T17:01:00.224Z,33.20
2019-03-23T17:03:28.173Z,33.70
2019-03-23T17:05:56.120Z,31.25
2019-03-23T17:08:24.277Z,30.95
2019-03-23T17:10:55.047Z,29.32
2019-03-23T17:13:23.136Z,29.98
2019-03-23T17:15:51.113Z,37.40
2019-03-23T17:18:19.157Z,29.92
2019-03-23T17:20:47.203Z,26.82
2019-03-23T17:23:15.168Z,26.17
2019-03-23T17:25:43.220Z,26.80
2019-03-23T17:28:11.192Z,24.37
2019-03-23T17:30:39.157Z,25.70
2019-03-23T17:33:08.866Z,26.30
2019-03-23T17:35:36.842Z,26.62
2019-03-23T17:38:04.956Z,24.47
2019-03-23T17:40:33.013Z,25.25
2019-03-23T17:43:05.830Z,24.23
2019-03-23T17:45:32.236Z,25.10
2019-03-23T17:48:00.202Z,22.80
2019-03-23T17:50:28.238Z,23.50
2019-03-23T17:52:56.193Z,23.87
2019-03-23T17:55:24.291Z,22.85
2019-03-23T17:57:55.003Z,23.02
2019-03-23T18:00:22.967Z,22.32
2019-03-23T18:02:51.113Z,22.48
2019-03-23T18:05:19.181Z,21.45
2019-03-23T18:07:47.269Z,21.85
2019-03-23T18:10:15.440Z,22.22
2019-03-23T18:12:43.420Z,22.58
2019-03-23T18:15:12.269Z,22.58
2019-03-23T18:17:40.217Z,21.00
2019-03-23T18:20:08.349Z,19.87
2019-03-23T18:22:36.436Z,20.95
2019-03-23T18:25:04.758Z,19.92
2019-03-23T18:27:32.744Z,19.62
2019-03-23T18:30:02.887Z,19.57
2019-03-23T18:32:31.103Z,18.42
2019-03-23T18:34:59.269Z,20.52
2019-03-23T18:37:27.221Z,18.40
2019-03-23T18:39:55.308Z,18.05
2019-03-23T18:42:23.267Z,20.43
2019-03-23T18:44:51.262Z,18.92
2019-03-23T18:47:19.421Z,20.15
2019-03-23T18:49:47.519Z,19.70
2019-03-23T18:52:15.532Z,18.12
2019-03-23T18:54:43.633Z,20.45
2019-03-23T18:57:11.601Z,19.70
2019-03-23T18:59:39.593Z,20.02
2019-03-23T19:02:07.586Z,21.37
2019-03-23T19:04:35.549Z,21.65
2019-03-23T19:07:03.699Z,21.85
2019-03-23T19:09:31.709Z,21.40
2019-03-23T19:11:59.685Z,20.02
2019-03-23T19:14:28.092Z,21.10
2019-03-23T19:16:56.084Z,22.32
2019-03-23T19:19:24.085Z,21.33
2019-03-23T19:21:52.048Z,22.25
2019-03-23T19:24:20.089Z,22.70
2019-03-23T19:26:48.077Z,20.70
2019-03-23T19:29:16.112Z,20.52
2019-03-23T19:31:44.083Z,21.00
2019-03-23T19:34:12.051Z,19.42
2019-03-23T19:36:40.026Z,19.95
2019-03-23T19:39:08.727Z,20.95
2019-03-23T19:41:36.579Z,20.68
2019-03-23T19:44:04.545Z,21.33
2019-03-23T19:46:32.627Z,21.40
2019-03-23T19:49:00.572Z,18.98
2019-03-23T19:51:28.554Z,19.50
2019-03-23T19:53:56.553Z,17.50
2019-03-23T19:56:24.540Z,16.00
2019-03-23T19:58:52.521Z,15.10
2019-03-23T20:01:20.433Z,15.68
2019-03-23T20:03:48.420Z,17.42
2019-03-23T20:06:16.385Z,14.87
2019-03-23T20:08:44.357Z,12.70
2019-03-23T20:11:12.368Z,13.00
2019-03-23T20:13:40.386Z,10.93
2019-03-23T20:16:09.753Z,8.95
2019-03-23T20:18:37.721Z,6.87
2019-03-23T20:21:06.065Z,6.03
2019-03-23T20:23:33.937Z,5.95
2019-03-23T20:26:02.006Z,5.55
2019-03-23T20:28:31.304Z,5.65
2019-03-23T20:31:02.269Z,5.35
2019-03-23T20:33:30.338Z,6.08
2019-03-23T20:36:01.374Z,4.80
2019-03-23T20:38:35.127Z,5.58
2019-03-23T20:41:03.100Z,5.25
2019-03-23T20:43:34.236Z,4.53
2019-03-23T20:46:05.047Z,4.55
2019-03-23T20:48:33.472Z,5.15
2019-03-23T20:51:01.956Z,5.03
2019-03-23T20:53:31.421Z,4.37
2019-03-23T20:56:04.382Z,4.30
2019-03-23T20:58:32.335Z,4.05
2019-03-23T21:01:00.428Z,4.67
2019-03-23T21:03:28.469Z,4.80
2019-03-23T21:05:58.316Z,4.00
2019-03-23T21:08:26.744Z,3.72
2019-03-23T21:10:54.780Z,4.00
2019-03-23T21:13:23.964Z,4.33
2019-03-23T21:15:53.882Z,4.25
2019-03-23T21:18:22.208Z,3.98
2019-03-23T21:20:51.120Z,3.80
2019-03-23T21:23:18.991Z,4.03
2019-03-23T21:25:46.981Z,4.30
2019-03-23T21:28:15.311Z,3.58
2019-03-23T21:30:43.418Z,4.03
2019-03-23T21:33:12.026Z,3.52
2019-03-23T21:35:40.165Z,4.03
2019-03-23T21:38:08.593Z,3.05
2019-03-23T21:40:36.698Z,3.80
2019-03-23T21:43:07.381Z,3.67
2019-03-23T21:45:39.522Z,3.15
2019-03-23T21:48:07.604Z,3.30
2019-03-23T21:50:46.785Z,3.58
2019-03-23T21:53:05.835Z,4.12
2019-03-23T21:55:33.814Z,4.00
2019-03-23T21:58:01.807Z,3.60
2019-03-23T22:00:31.292Z,3.90
2019-03-23T22:02:59.568Z,4.03
2019-03-23T22:05:27.577Z,3.40
2019-03-23T22:07:55.645Z,3.87
2019-03-23T22:10:23.719Z,4.42
2019-03-23T22:12:51.795Z,4.25
2019-03-23T22:15:19.756Z,4.72
2019-03-23T22:17:47.764Z,4.30
2019-03-23T22:20:15.754Z,3.98
2019-03-23T22:22:43.732Z,3.67
2019-03-23T22:25:11.793Z,3.70
2019-03-23T22:27:39.820Z,3.67
2019-03-23T22:30:10.104Z,4.50
2019-03-23T22:32:38.068Z,3.50
2019-03-23T22:35:07.014Z,4.12
2019-03-23T22:37:35.084Z,3.83
2019-03-23T22:40:05.345Z,3.27
2019-03-23T22:42:33.306Z,3.83
2019-03-23T22:45:01.313Z,4.60
2019-03-23T22:47:29.309Z,2.65
2019-03-23T22:49:57.374Z,3.55
2019-03-23T22:52:25.426Z,3.55
2019-03-23T22:54:53.408Z,4.15
2019-03-23T22:57:21.466Z,3.50
2019-03-23T22:59:49.452Z,3.98
2019-03-23T23:02:17.532Z,3.40
2019-03-23T23:04:45.606Z,3.22
2019-03-23T23:07:13.581Z,3.65
2019-03-23T23:09:41.559Z,4.00
2019-03-23T23:12:09.525Z,4.35
2019-03-23T23:14:37.492Z,3.58
2019-03-23T23:17:05.578Z,4.03
2019-03-23T23:19:33.542Z,2.85
2019-03-23T23:22:01.528Z,4.55
2019-03-23T23:24:29.498Z,4.17
2019-03-23T23:26:57.484Z,3.70
2019-03-23T23:29:25.460Z,4.20
2019-03-23T23:31:53.434Z,3.55
2019-03-23T23:34:21.428Z,3.83
2019-03-23T23:36:49.622Z,3.58
2019-03-23T23:39:17.824Z,4.10
2019-03-23T23:41:45.845Z,3.72
2019-03-23T23:44:13.820Z,3.00
2019-03-23T23:46:42.042Z,3.75
2019-03-23T23:49:10.011Z,4.03
2019-03-23T23:51:37.994Z,4.08
2019-03-23T23:54:05.977Z,4.20
2019-03-23T23:56:33.984Z,3.67
2019-03-23T23:59:02.021Z,4.35
